sensor_id;sensor_type;location;lat;lon;timestamp;P1;durP1;ratioP1;P2;durP2;ratioP2
62903;SDS011;49000;50.698;13.322;2023-05-21T00:02:15;21.30;;;16.87;;
62903;SDS011;49000;50.698;13.322;2023-05-21T00:04:45;19.77;;;15.37;;
62903;SDS011;49000;50.698;13.322;2023-05-21T00:07:11;21.90;;;16.10;;
62903;SDS011;49000;50.698;13.322;2023-05-21T00:09:37;22.30;;;16.50;;
62903;SDS011;49000;50.698;13.322;2023-05-21T00:12:04;21.50;;;17.07;;
62903;SDS011;49000;50.698;13.322;2023-05-21T00:14:30;22.73;;;18.03;;
62903;SDS011;49000;50.698;13.322;2023-05-21T00:16:55;20.90;;;16.33;;
62903;SDS011;49000;50.698;13.322;2023-05-21T00:19:21;19.60;;;16.23;;
62903;SDS011;49000;50.698;13.322;2023-05-21T00:21:46;20.87;;;16.80;;
62903;SDS011;49000;50.698;13.322;2023-05-21T00:24:12;19.23;;;15.07;;
62903;SDS011;49000;50.698;13.322;2023-05-21T00:26:37;20.00;;;15.20;;
62903;SDS011;49000;50.698;13.322;2023-05-21T00:29:03;20.20;;;16.47;;
62903;SDS011;49000;50.698;13.322;2023-05-21T00:31:28;26.27;;;19.20;;
62903;SDS011;49000;50.698;13.322;2023-05-21T00:33:54;21.43;;;16.33;;
62903;SDS011;49000;50.698;13.322;2023-05-21T00:36:20;24.40;;;18.77;;
62903;SDS011;49000;50.698;13.322;2023-05-21T00:38:48;20.60;;;16.13;;
62903;SDS011;49000;50.698;13.322;2023-05-21T00:41:17;18.93;;;14.97;;
62903;SDS011;49000;50.698;13.322;2023-05-21T00:43:42;23.73;;;18.33;;
62903;SDS011;49000;50.698;13.322;2023-05-21T00:46:19;20.97;;;16.20;;
62903;SDS011;49000;50.698;13.322;2023-05-21T00:48:46;19.57;;;16.33;;
62903;SDS011;49000;50.698;13.322;2023-05-21T00:51:13;30.07;;;21.47;;
62903;SDS011;49000;50.698;13.322;2023-05-21T00:53:39;22.67;;;17.47;;
62903;SDS011;49000;50.698;13.322;2023-05-21T00:56:05;25.37;;;19.17;;
62903;SDS011;49000;50.698;13.322;2023-05-21T00:58:31;22.83;;;17.83;;
62903;SDS011;49000;50.698;13.322;2023-05-21T01:00:58;22.13;;;16.67;;
62903;SDS011;49000;50.698;13.322;2023-05-21T01:03:27;24.13;;;18.90;;
62903;SDS011;49000;50.698;13.322;2023-05-21T01:05:54;22.83;;;17.63;;
62903;SDS011;49000;50.698;13.322;2023-05-21T01:08:23;23.23;;;17.63;;
62903;SDS011;49000;50.698;13.322;2023-05-21T01:10:50;20.87;;;17.00;;
62903;SDS011;49000;50.698;13.322;2023-05-21T01:13:17;23.50;;;18.50;;
62903;SDS011;49000;50.698;13.322;2023-05-21T01:15:44;26.33;;;19.97;;
62903;SDS011;49000;50.698;13.322;2023-05-21T01:18:11;23.67;;;17.80;;
62903;SDS011;49000;50.698;13.322;2023-05-21T01:20:38;23.87;;;16.73;;
62903;SDS011;49000;50.698;13.322;2023-05-21T01:23:04;21.17;;;16.57;;
62903;SDS011;49000;50.698;13.322;2023-05-21T01:25:29;25.07;;;18.73;;
62903;SDS011;49000;50.698;13.322;2023-05-21T01:27:55;21.83;;;16.90;;
62903;SDS011;49000;50.698;13.322;2023-05-21T01:30:21;23.47;;;18.03;;
62903;SDS011;49000;50.698;13.322;2023-05-21T01:33:01;23.30;;;18.43;;
62903;SDS011;49000;50.698;13.322;2023-05-21T01:35:30;21.57;;;16.43;;
62903;SDS011;49000;50.698;13.322;2023-05-21T01:38:01;23.53;;;18.13;;
62903;SDS011;49000;50.698;13.322;2023-05-21T01:40:55;22.63;;;17.13;;
62903;SDS011;49000;50.698;13.322;2023-05-21T01:43:27;23.67;;;18.27;;
62903;SDS011;49000;50.698;13.322;2023-05-21T01:45:55;22.53;;;17.13;;
62903;SDS011;49000;50.698;13.322;2023-05-21T01:48:22;21.97;;;17.27;;
62903;SDS011;49000;50.698;13.322;2023-05-21T01:50:51;26.13;;;19.90;;
62903;SDS011;49000;50.698;13.322;2023-05-21T01:53:19;28.80;;;20.73;;
62903;SDS011;49000;50.698;13.322;2023-05-21T01:55:45;31.20;;;20.70;;
62903;SDS011;49000;50.698;13.322;2023-05-21T01:58:10;29.47;;;20.57;;
62903;SDS011;49000;50.698;13.322;2023-05-21T02:00:36;26.60;;;19.83;;
62903;SDS011;49000;50.698;13.322;2023-05-21T02:03:03;27.00;;;20.73;;
62903;SDS011;49000;50.698;13.322;2023-05-21T02:05:29;23.53;;;18.73;;
62903;SDS011;49000;50.698;13.322;2023-05-21T02:07:55;22.77;;;18.07;;
62903;SDS011;49000;50.698;13.322;2023-05-21T02:10:20;22.90;;;17.43;;
62903;SDS011;49000;50.698;13.322;2023-05-21T02:12:46;23.30;;;18.40;;
62903;SDS011;49000;50.698;13.322;2023-05-21T02:15:12;26.50;;;19.50;;
62903;SDS011;49000;50.698;13.322;2023-05-21T02:17:42;22.37;;;18.53;;
62903;SDS011;49000;50.698;13.322;2023-05-21T02:20:08;26.40;;;19.97;;
62903;SDS011;49000;50.698;13.322;2023-05-21T02:22:41;24.33;;;18.23;;
62903;SDS011;49000;50.698;13.322;2023-05-21T02:25:08;20.20;;;15.83;;
62903;SDS011;49000;50.698;13.322;2023-05-21T02:27:34;20.90;;;16.03;;
62903;SDS011;49000;50.698;13.322;2023-05-21T02:30:01;25.90;;;18.60;;
62903;SDS011;49000;50.698;13.322;2023-05-21T02:32:28;22.27;;;16.47;;
62903;SDS011;49000;50.698;13.322;2023-05-21T02:34:55;22.27;;;17.23;;
62903;SDS011;49000;50.698;13.322;2023-05-21T02:37:22;25.07;;;18.30;;
62903;SDS011;49000;50.698;13.322;2023-05-21T02:39:47;23.97;;;17.53;;
62903;SDS011;49000;50.698;13.322;2023-05-21T02:42:13;22.60;;;18.13;;
62903;SDS011;49000;50.698;13.322;2023-05-21T02:44:38;20.87;;;16.77;;
62903;SDS011;49000;50.698;13.322;2023-05-21T02:47:04;20.63;;;16.40;;
62903;SDS011;49000;50.698;13.322;2023-05-21T02:49:30;24.17;;;17.23;;
62903;SDS011;49000;50.698;13.322;2023-05-21T02:51:56;21.63;;;16.30;;
62903;SDS011;49000;50.698;13.322;2023-05-21T02:54:21;24.93;;;17.67;;
62903;SDS011;49000;50.698;13.322;2023-05-21T02:56:46;21.87;;;18.70;;
62903;SDS011;49000;50.698;13.322;2023-05-21T02:59:12;23.87;;;17.40;;
62903;SDS011;49000;50.698;13.322;2023-05-21T03:01:37;22.23;;;17.17;;
62903;SDS011;49000;50.698;13.322;2023-05-21T03:04:05;21.97;;;17.40;;
62903;SDS011;49000;50.698;13.322;2023-05-21T03:06:30;25.07;;;17.10;;
62903;SDS011;49000;50.698;13.322;2023-05-21T03:08:56;20.87;;;16.63;;
62903;SDS011;49000;50.698;13.322;2023-05-21T03:11:21;20.03;;;15.70;;
62903;SDS011;49000;50.698;13.322;2023-05-21T03:13:47;22.30;;;17.67;;
62903;SDS011;49000;50.698;13.322;2023-05-21T03:16:12;23.83;;;17.50;;
62903;SDS011;49000;50.698;13.322;2023-05-21T03:18:38;19.40;;;15.80;;
62903;SDS011;49000;50.698;13.322;2023-05-21T03:21:03;22.43;;;16.67;;
62903;SDS011;49000;50.698;13.322;2023-05-21T03:23:29;21.83;;;16.90;;
62903;SDS011;49000;50.698;13.322;2023-05-21T03:25:55;19.40;;;16.17;;
62903;SDS011;49000;50.698;13.322;2023-05-21T03:28:21;20.30;;;17.40;;
62903;SDS011;49000;50.698;13.322;2023-05-21T03:30:47;20.30;;;16.73;;
62903;SDS011;49000;50.698;13.322;2023-05-21T03:33:14;21.97;;;17.73;;
62903;SDS011;49000;50.698;13.322;2023-05-21T03:35:40;22.23;;;16.93;;
62903;SDS011;49000;50.698;13.322;2023-05-21T03:38:06;24.03;;;18.37;;
62903;SDS011;49000;50.698;13.322;2023-05-21T03:40:31;21.97;;;17.93;;
62903;SDS011;49000;50.698;13.322;2023-05-21T03:42:57;24.60;;;18.43;;
62903;SDS011;49000;50.698;13.322;2023-05-21T03:45:22;24.07;;;18.40;;
62903;SDS011;49000;50.698;13.322;2023-05-21T03:47:48;23.83;;;18.23;;
62903;SDS011;49000;50.698;13.322;2023-05-21T03:50:13;23.87;;;18.53;;
62903;SDS011;49000;50.698;13.322;2023-05-21T03:52:39;24.13;;;19.03;;
62903;SDS011;49000;50.698;13.322;2023-05-21T03:55:05;23.27;;;17.37;;
62903;SDS011;49000;50.698;13.322;2023-05-21T03:57:31;23.80;;;17.50;;
62903;SDS011;49000;50.698;13.322;2023-05-21T03:59:56;22.43;;;18.37;;
62903;SDS011;49000;50.698;13.322;2023-05-21T04:02:24;22.80;;;18.27;;
62903;SDS011;49000;50.698;13.322;2023-05-21T04:04:50;23.73;;;18.50;;
62903;SDS011;49000;50.698;13.322;2023-05-21T04:07:17;22.87;;;17.83;;
62903;SDS011;49000;50.698;13.322;2023-05-21T04:09:43;24.27;;;18.70;;
62903;SDS011;49000;50.698;13.322;2023-05-21T04:12:09;22.03;;;17.73;;
62903;SDS011;49000;50.698;13.322;2023-05-21T04:14:35;22.13;;;16.80;;
62903;SDS011;49000;50.698;13.322;2023-05-21T04:17:04;21.43;;;17.30;;
62903;SDS011;49000;50.698;13.322;2023-05-21T04:19:32;24.40;;;18.27;;
62903;SDS011;49000;50.698;13.322;2023-05-21T04:21:58;22.27;;;17.13;;
62903;SDS011;49000;50.698;13.322;2023-05-21T04:24:23;24.63;;;17.93;;
62903;SDS011;49000;50.698;13.322;2023-05-21T04:26:49;21.10;;;17.80;;
62903;SDS011;49000;50.698;13.322;2023-05-21T04:29:15;23.33;;;18.13;;
62903;SDS011;49000;50.698;13.322;2023-05-21T04:31:42;22.47;;;16.47;;
62903;SDS011;49000;50.698;13.322;2023-05-21T04:34:08;24.50;;;17.80;;
62903;SDS011;49000;50.698;13.322;2023-05-21T04:36:33;23.57;;;18.00;;
62903;SDS011;49000;50.698;13.322;2023-05-21T04:38:59;23.13;;;17.63;;
62903;SDS011;49000;50.698;13.322;2023-05-21T04:41:26;21.90;;;17.87;;
62903;SDS011;49000;50.698;13.322;2023-05-21T04:43:52;22.80;;;17.87;;
62903;SDS011;49000;50.698;13.322;2023-05-21T04:46:19;25.17;;;18.20;;
62903;SDS011;49000;50.698;13.322;2023-05-21T04:48:49;24.40;;;18.63;;
62903;SDS011;49000;50.698;13.322;2023-05-21T04:51:17;22.30;;;17.67;;
62903;SDS011;49000;50.698;13.322;2023-05-21T04:53:43;23.40;;;17.20;;
62903;SDS011;49000;50.698;13.322;2023-05-21T04:56:08;22.60;;;17.83;;
62903;SDS011;49000;50.698;13.322;2023-05-21T04:58:34;22.77;;;17.87;;
62903;SDS011;49000;50.698;13.322;2023-05-21T05:01:00;25.37;;;18.73;;
62903;SDS011;49000;50.698;13.322;2023-05-21T05:03:26;24.20;;;17.97;;
62903;SDS011;49000;50.698;13.322;2023-05-21T05:05:52;24.43;;;18.73;;
62903;SDS011;49000;50.698;13.322;2023-05-21T05:08:18;25.23;;;19.63;;
62903;SDS011;49000;50.698;13.322;2023-05-21T05:10:43;23.60;;;18.97;;
62903;SDS011;49000;50.698;13.322;2023-05-21T05:13:08;24.73;;;19.10;;
62903;SDS011;49000;50.698;13.322;2023-05-21T05:15:34;25.83;;;20.03;;
62903;SDS011;49000;50.698;13.322;2023-05-21T05:17:59;28.73;;;20.87;;
62903;SDS011;49000;50.698;13.322;2023-05-21T05:20:25;24.33;;;19.67;;
62903;SDS011;49000;50.698;13.322;2023-05-21T05:22:51;28.60;;;21.47;;
62903;SDS011;49000;50.698;13.322;2023-05-21T05:25:16;24.60;;;20.33;;
62903;SDS011;49000;50.698;13.322;2023-05-21T05:27:42;34.70;;;22.83;;
62903;SDS011;49000;50.698;13.322;2023-05-21T05:30:08;23.90;;;19.53;;
62903;SDS011;49000;50.698;13.322;2023-05-21T05:32:33;26.03;;;19.80;;
62903;SDS011;49000;50.698;13.322;2023-05-21T05:34:59;24.10;;;19.20;;
62903;SDS011;49000;50.698;13.322;2023-05-21T05:37:24;25.33;;;19.60;;
62903;SDS011;49000;50.698;13.322;2023-05-21T05:39:50;23.87;;;18.70;;
62903;SDS011;49000;50.698;13.322;2023-05-21T05:42:16;23.20;;;18.70;;
62903;SDS011;49000;50.698;13.322;2023-05-21T05:44:42;21.83;;;17.70;;
62903;SDS011;49000;50.698;13.322;2023-05-21T05:47:08;19.53;;;16.83;;
62903;SDS011;49000;50.698;13.322;2023-05-21T05:49:34;22.17;;;18.23;;
62903;SDS011;49000;50.698;13.322;2023-05-21T05:52:00;20.30;;;16.93;;
62903;SDS011;49000;50.698;13.322;2023-05-21T05:54:26;19.47;;;16.77;;
62903;SDS011;49000;50.698;13.322;2023-05-21T05:56:51;22.10;;;17.80;;
62903;SDS011;49000;50.698;13.322;2023-05-21T05:59:17;22.07;;;17.93;;
62903;SDS011;49000;50.698;13.322;2023-05-21T06:01:42;22.97;;;16.87;;
62903;SDS011;49000;50.698;13.322;2023-05-21T06:04:08;25.10;;;17.87;;
62903;SDS011;49000;50.698;13.322;2023-05-21T06:06:33;20.17;;;18.07;;
62903;SDS011;49000;50.698;13.322;2023-05-21T06:09:00;21.47;;;17.63;;
62903;SDS011;49000;50.698;13.322;2023-05-21T06:11:26;21.90;;;18.13;;
62903;SDS011;49000;50.698;13.322;2023-05-21T06:13:52;20.73;;;17.50;;
62903;SDS011;49000;50.698;13.322;2023-05-21T06:16:18;22.13;;;18.30;;
62903;SDS011;49000;50.698;13.322;2023-05-21T06:18:43;21.47;;;17.57;;
62903;SDS011;49000;50.698;13.322;2023-05-21T06:21:09;21.97;;;16.73;;
62903;SDS011;49000;50.698;13.322;2023-05-21T06:23:34;20.87;;;17.87;;
62903;SDS011;49000;50.698;13.322;2023-05-21T06:26:01;21.07;;;17.63;;
62903;SDS011;49000;50.698;13.322;2023-05-21T06:28:27;21.07;;;17.17;;
62903;SDS011;49000;50.698;13.322;2023-05-21T06:30:53;20.53;;;17.23;;
62903;SDS011;49000;50.698;13.322;2023-05-21T06:33:18;21.97;;;17.07;;
62903;SDS011;49000;50.698;13.322;2023-05-21T06:35:44;21.80;;;16.87;;
62903;SDS011;49000;50.698;13.322;2023-05-21T06:38:09;22.50;;;17.37;;
62903;SDS011;49000;50.698;13.322;2023-05-21T06:40:35;21.63;;;16.90;;
62903;SDS011;49000;50.698;13.322;2023-05-21T06:43:00;20.63;;;16.83;;
62903;SDS011;49000;50.698;13.322;2023-05-21T06:45:28;21.85;;;16.80;;
62903;SDS011;49000;50.698;13.322;2023-05-21T06:47:54;18.40;;;15.73;;
62903;SDS011;49000;50.698;13.322;2023-05-21T06:50:19;19.20;;;16.55;;
62903;SDS011;49000;50.698;13.322;2023-05-21T06:52:45;18.98;;;15.15;;
62903;SDS011;49000;50.698;13.322;2023-05-21T06:55:10;17.25;;;15.40;;
62903;SDS011;49000;50.698;13.322;2023-05-21T06:57:36;19.77;;;16.48;;
62903;SDS011;49000;50.698;13.322;2023-05-21T07:00:02;20.20;;;16.73;;
62903;SDS011;49000;50.698;13.322;2023-05-21T07:02:29;21.13;;;16.33;;
62903;SDS011;49000;50.698;13.322;2023-05-21T07:04:55;18.95;;;15.90;;
62903;SDS011;49000;50.698;13.322;2023-05-21T07:07:20;18.85;;;15.90;;
62903;SDS011;49000;50.698;13.322;2023-05-21T07:09:46;16.98;;;15.00;;
62903;SDS011;49000;50.698;13.322;2023-05-21T07:12:11;18.70;;;15.63;;
62903;SDS011;49000;50.698;13.322;2023-05-21T07:14:37;18.30;;;16.17;;
62903;SDS011;49000;50.698;13.322;2023-05-21T07:17:02;19.83;;;16.92;;
62903;SDS011;49000;50.698;13.322;2023-05-21T07:19:28;18.77;;;16.33;;
62903;SDS011;49000;50.698;13.322;2023-05-21T07:21:53;17.77;;;15.27;;
62903;SDS011;49000;50.698;13.322;2023-05-21T07:24:20;18.05;;;15.45;;
62903;SDS011;49000;50.698;13.322;2023-05-21T07:26:46;17.50;;;14.50;;
62903;SDS011;49000;50.698;13.322;2023-05-21T07:29:11;16.90;;;14.77;;
62903;SDS011;49000;50.698;13.322;2023-05-21T07:31:37;16.48;;;14.50;;
62903;SDS011;49000;50.698;13.322;2023-05-21T07:34:02;16.70;;;14.73;;
62903;SDS011;49000;50.698;13.322;2023-05-21T07:36:27;16.65;;;13.98;;
62903;SDS011;49000;50.698;13.322;2023-05-21T07:38:53;18.67;;;14.43;;
62903;SDS011;49000;50.698;13.322;2023-05-21T07:41:19;16.88;;;14.82;;
62903;SDS011;49000;50.698;13.322;2023-05-21T07:43:45;16.60;;;14.15;;
62903;SDS011;49000;50.698;13.322;2023-05-21T07:46:11;15.05;;;13.45;;
62903;SDS011;49000;50.698;13.322;2023-05-21T07:48:36;17.73;;;14.73;;
62903;SDS011;49000;50.698;13.322;2023-05-21T07:51:02;20.73;;;14.95;;
62903;SDS011;49000;50.698;13.322;2023-05-21T07:53:27;15.60;;;13.98;;
62903;SDS011;49000;50.698;13.322;2023-05-21T07:55:56;15.73;;;13.50;;
62903;SDS011;49000;50.698;13.322;2023-05-21T07:58:22;15.00;;;13.43;;
62903;SDS011;49000;50.698;13.322;2023-05-21T08:00:47;15.57;;;13.52;;
62903;SDS011;49000;50.698;13.322;2023-05-21T08:03:16;15.98;;;14.10;;
62903;SDS011;49000;50.698;13.322;2023-05-21T08:05:45;15.20;;;13.25;;
62903;SDS011;49000;50.698;13.322;2023-05-21T08:08:18;15.05;;;13.45;;
62903;SDS011;49000;50.698;13.322;2023-05-21T08:10:43;15.38;;;13.48;;
62903;SDS011;49000;50.698;13.322;2023-05-21T08:13:12;15.30;;;12.80;;
62903;SDS011;49000;50.698;13.322;2023-05-21T08:15:38;14.23;;;12.57;;
62903;SDS011;49000;50.698;13.322;2023-05-21T08:18:04;15.55;;;13.00;;
62903;SDS011;49000;50.698;13.322;2023-05-21T08:20:30;14.57;;;12.25;;
62903;SDS011;49000;50.698;13.322;2023-05-21T08:22:57;15.43;;;12.07;;
62903;SDS011;49000;50.698;13.322;2023-05-21T08:25:24;12.88;;;11.48;;
62903;SDS011;49000;50.698;13.322;2023-05-21T08:27:49;12.65;;;11.35;;
62903;SDS011;49000;50.698;13.322;2023-05-21T08:30:15;14.32;;;11.68;;
62903;SDS011;49000;50.698;13.322;2023-05-21T08:32:41;20.75;;;12.60;;
62903;SDS011;49000;50.698;13.322;2023-05-21T08:35:07;12.93;;;11.63;;
62903;SDS011;49000;50.698;13.322;2023-05-21T08:37:32;13.05;;;11.38;;
62903;SDS011;49000;50.698;13.322;2023-05-21T08:39:58;13.75;;;11.82;;
62903;SDS011;49000;50.698;13.322;2023-05-21T08:45:02;12.73;;;11.43;;
62903;SDS011;49000;50.698;13.322;2023-05-21T08:47:31;14.15;;;12.35;;
62903;SDS011;49000;50.698;13.322;2023-05-21T08:49:59;14.43;;;12.52;;
62903;SDS011;49000;50.698;13.322;2023-05-21T08:52:26;13.57;;;10.80;;
62903;SDS011;49000;50.698;13.322;2023-05-21T08:54:51;12.27;;;11.07;;
62903;SDS011;49000;50.698;13.322;2023-05-21T08:57:18;13.55;;;10.75;;
62903;SDS011;49000;50.698;13.322;2023-05-21T08:59:47;11.70;;;10.50;;
62903;SDS011;49000;50.698;13.322;2023-05-21T09:02:12;14.07;;;11.32;;
62903;SDS011;49000;50.698;13.322;2023-05-21T09:04:39;11.80;;;10.55;;
62903;SDS011;49000;50.698;13.322;2023-05-21T09:07:05;12.90;;;11.15;;
62903;SDS011;49000;50.698;13.322;2023-05-21T09:09:35;12.60;;;10.90;;
62903;SDS011;49000;50.698;13.322;2023-05-21T09:12:06;12.00;;;10.35;;
62903;SDS011;49000;50.698;13.322;2023-05-21T09:14:32;11.63;;;10.50;;
62903;SDS011;49000;50.698;13.322;2023-05-21T09:16:58;11.18;;;10.05;;
62903;SDS011;49000;50.698;13.322;2023-05-21T09:19:23;11.55;;;9.80;;
62903;SDS011;49000;50.698;13.322;2023-05-21T09:21:49;12.45;;;10.05;;
62903;SDS011;49000;50.698;13.322;2023-05-21T09:24:16;11.90;;;9.32;;
62903;SDS011;49000;50.698;13.322;2023-05-21T09:26:42;12.85;;;10.00;;
62903;SDS011;49000;50.698;13.322;2023-05-21T09:29:07;12.63;;;10.18;;
62903;SDS011;49000;50.698;13.322;2023-05-21T09:31:33;11.15;;;10.05;;
62903;SDS011;49000;50.698;13.322;2023-05-21T09:33:58;12.05;;;10.68;;
62903;SDS011;49000;50.698;13.322;2023-05-21T09:36:24;11.90;;;10.32;;
62903;SDS011;49000;50.698;13.322;2023-05-21T09:38:51;11.38;;;10.27;;
62903;SDS011;49000;50.698;13.322;2023-05-21T09:41:17;11.52;;;10.20;;
62903;SDS011;49000;50.698;13.322;2023-05-21T09:43:43;11.27;;;10.18;;
62903;SDS011;49000;50.698;13.322;2023-05-21T09:46:09;13.85;;;10.40;;
62903;SDS011;49000;50.698;13.322;2023-05-21T09:48:36;15.57;;;10.48;;
62903;SDS011;49000;50.698;13.322;2023-05-21T09:51:14;10.18;;;9.18;;
62903;SDS011;49000;50.698;13.322;2023-05-21T09:53:45;10.63;;;9.63;;
62903;SDS011;49000;50.698;13.322;2023-05-21T09:56:12;11.60;;;10.48;;
62903;SDS011;49000;50.698;13.322;2023-05-21T09:58:38;12.13;;;10.30;;
62903;SDS011;49000;50.698;13.322;2023-05-21T10:01:03;11.35;;;8.73;;
62903;SDS011;49000;50.698;13.322;2023-05-21T10:03:30;11.45;;;9.35;;
62903;SDS011;49000;50.698;13.322;2023-05-21T10:05:57;10.57;;;9.48;;
62903;SDS011;49000;50.698;13.322;2023-05-21T10:08:25;10.50;;;9.40;;
62903;SDS011;49000;50.698;13.322;2023-05-21T10:10:55;9.82;;;8.77;;
62903;SDS011;49000;50.698;13.322;2023-05-21T10:13:20;10.30;;;9.13;;
62903;SDS011;49000;50.698;13.322;2023-05-21T10:15:50;11.18;;;9.25;;
62903;SDS011;49000;50.698;13.322;2023-05-21T10:18:22;9.55;;;8.10;;
62903;SDS011;49000;50.698;13.322;2023-05-21T10:20:48;11.95;;;8.70;;
62903;SDS011;49000;50.698;13.322;2023-05-21T10:23:16;9.60;;;8.70;;
62903;SDS011;49000;50.698;13.322;2023-05-21T10:25:42;8.68;;;7.78;;
62903;SDS011;49000;50.698;13.322;2023-05-21T10:28:09;9.30;;;8.32;;
62903;SDS011;49000;50.698;13.322;2023-05-21T10:30:35;10.75;;;9.15;;
62903;SDS011;49000;50.698;13.322;2023-05-21T10:33:01;12.52;;;9.27;;
62903;SDS011;49000;50.698;13.322;2023-05-21T10:35:28;9.82;;;8.82;;
62903;SDS011;49000;50.698;13.322;2023-05-21T10:37:54;10.57;;;9.48;;
62903;SDS011;49000;50.698;13.322;2023-05-21T10:40:21;10.55;;;9.48;;
62903;SDS011;49000;50.698;13.322;2023-05-21T10:46:00;11.35;;;8.60;;
62903;SDS011;49000;50.698;13.322;2023-05-21T10:48:50;9.68;;;7.63;;
62903;SDS011;49000;50.698;13.322;2023-05-21T10:51:25;9.07;;;8.18;;
62903;SDS011;49000;50.698;13.322;2023-05-21T10:54:15;11.52;;;7.97;;
62903;SDS011;49000;50.698;13.322;2023-05-21T10:59:35;8.80;;;7.93;;
62903;SDS011;49000;50.698;13.322;2023-05-21T11:02:05;8.32;;;7.53;;
62903;SDS011;49000;50.698;13.322;2023-05-21T11:04:32;8.10;;;7.30;;
62903;SDS011;49000;50.698;13.322;2023-05-21T11:07:03;8.48;;;7.65;;
62903;SDS011;49000;50.698;13.322;2023-05-21T11:09:29;9.50;;;8.38;;
62903;SDS011;49000;50.698;13.322;2023-05-21T11:11:58;10.90;;;8.38;;
62903;SDS011;49000;50.698;13.322;2023-05-21T11:17:00;8.75;;;7.82;;
62903;SDS011;49000;50.698;13.322;2023-05-21T11:19:41;10.05;;;7.90;;
62903;SDS011;49000;50.698;13.322;2023-05-21T11:22:08;9.20;;;8.10;;
62903;SDS011;49000;50.698;13.322;2023-05-21T11:24:47;9.88;;;7.97;;
62903;SDS011;49000;50.698;13.322;2023-05-21T11:27:29;7.78;;;7.03;;
62903;SDS011;49000;50.698;13.322;2023-05-21T11:29:57;7.38;;;6.78;;
62903;SDS011;49000;50.698;13.322;2023-05-21T11:32:23;7.68;;;6.70;;
62903;SDS011;49000;50.698;13.322;2023-05-21T11:34:49;9.18;;;7.55;;
62903;SDS011;49000;50.698;13.322;2023-05-21T11:39:54;8.02;;;6.45;;
62903;SDS011;49000;50.698;13.322;2023-05-21T11:42:33;7.47;;;6.78;;
62903;SDS011;49000;50.698;13.322;2023-05-21T11:45:03;8.20;;;7.40;;
62903;SDS011;49000;50.698;13.322;2023-05-21T11:47:29;7.07;;;6.40;;
62903;SDS011;49000;50.698;13.322;2023-05-21T11:49:59;7.25;;;5.75;;
62903;SDS011;49000;50.698;13.322;2023-05-21T11:52:29;8.48;;;6.10;;
62903;SDS011;49000;50.698;13.322;2023-05-21T11:54:56;6.38;;;5.75;;
62903;SDS011;49000;50.698;13.322;2023-05-21T11:57:25;7.05;;;6.35;;
62903;SDS011;49000;50.698;13.322;2023-05-21T11:59:54;7.53;;;6.82;;
62903;SDS011;49000;50.698;13.322;2023-05-21T12:02:22;7.40;;;6.57;;
62903;SDS011;49000;50.698;13.322;2023-05-21T12:04:49;7.38;;;5.97;;
62903;SDS011;49000;50.698;13.322;2023-05-21T12:07:15;7.80;;;7.00;;
62903;SDS011;49000;50.698;13.322;2023-05-21T12:09:47;8.52;;;6.88;;
62903;SDS011;49000;50.698;13.322;2023-05-21T12:12:14;6.47;;;5.57;;
62903;SDS011;49000;50.698;13.322;2023-05-21T12:14:53;6.72;;;5.70;;
62903;SDS011;49000;50.698;13.322;2023-05-21T12:17:23;7.68;;;6.30;;
62903;SDS011;49000;50.698;13.322;2023-05-21T12:19:51;7.38;;;6.72;;
62903;SDS011;49000;50.698;13.322;2023-05-21T12:22:17;6.65;;;6.05;;
62903;SDS011;49000;50.698;13.322;2023-05-21T12:24:43;8.38;;;7.28;;
62903;SDS011;49000;50.698;13.322;2023-05-21T12:27:09;8.63;;;7.38;;
62903;SDS011;49000;50.698;13.322;2023-05-21T12:29:37;8.05;;;7.25;;
62903;SDS011;49000;50.698;13.322;2023-05-21T12:32:05;8.02;;;6.72;;
62903;SDS011;49000;50.698;13.322;2023-05-21T12:34:36;7.03;;;6.32;;
62903;SDS011;49000;50.698;13.322;2023-05-21T12:37:07;7.60;;;6.70;;
62903;SDS011;49000;50.698;13.322;2023-05-21T12:39:39;7.75;;;6.95;;
62903;SDS011;49000;50.698;13.322;2023-05-21T12:42:09;7.72;;;7.00;;
62903;SDS011;49000;50.698;13.322;2023-05-21T12:44:34;11.13;;;6.70;;
62903;SDS011;49000;50.698;13.322;2023-05-21T12:47:02;7.38;;;6.68;;
62903;SDS011;49000;50.698;13.322;2023-05-21T12:49:32;8.70;;;7.00;;
62903;SDS011;49000;50.698;13.322;2023-05-21T12:52:03;8.90;;;8.05;;
62903;SDS011;49000;50.698;13.322;2023-05-21T12:54:33;8.13;;;7.10;;
62903;SDS011;49000;50.698;13.322;2023-05-21T12:57:05;7.65;;;6.82;;
62903;SDS011;49000;50.698;13.322;2023-05-21T12:59:47;13.20;;;7.88;;
62903;SDS011;49000;50.698;13.322;2023-05-21T13:02:13;9.60;;;7.20;;
62903;SDS011;49000;50.698;13.322;2023-05-21T13:04:47;7.97;;;7.13;;
62903;SDS011;49000;50.698;13.322;2023-05-21T13:07:16;8.10;;;6.80;;
62903;SDS011;49000;50.698;13.322;2023-05-21T13:09:42;7.57;;;6.68;;
62903;SDS011;49000;50.698;13.322;2023-05-21T13:12:08;7.03;;;6.30;;
62903;SDS011;49000;50.698;13.322;2023-05-21T13:14:33;7.85;;;6.35;;
62903;SDS011;49000;50.698;13.322;2023-05-21T13:16:59;8.45;;;7.00;;
62903;SDS011;49000;50.698;13.322;2023-05-21T13:19:24;7.40;;;6.68;;
62903;SDS011;49000;50.698;13.322;2023-05-21T13:21:50;8.25;;;7.45;;
62903;SDS011;49000;50.698;13.322;2023-05-21T13:24:16;7.95;;;7.00;;
62903;SDS011;49000;50.698;13.322;2023-05-21T13:26:41;7.97;;;6.53;;
62903;SDS011;49000;50.698;13.322;2023-05-21T13:29:07;7.45;;;6.75;;
62903;SDS011;49000;50.698;13.322;2023-05-21T13:31:32;7.47;;;6.78;;
62903;SDS011;49000;50.698;13.322;2023-05-21T13:33:57;8.07;;;7.10;;
62903;SDS011;49000;50.698;13.322;2023-05-21T13:36:23;7.50;;;6.50;;
62903;SDS011;49000;50.698;13.322;2023-05-21T13:38:48;7.32;;;6.50;;
62903;SDS011;49000;50.698;13.322;2023-05-21T13:41:14;7.93;;;7.00;;
62903;SDS011;49000;50.698;13.322;2023-05-21T13:43:42;7.22;;;6.53;;
62903;SDS011;49000;50.698;13.322;2023-05-21T13:46:08;7.43;;;6.30;;
62903;SDS011;49000;50.698;13.322;2023-05-21T13:48:33;8.15;;;7.35;;
62903;SDS011;49000;50.698;13.322;2023-05-21T13:50:59;8.00;;;7.20;;
62903;SDS011;49000;50.698;13.322;2023-05-21T13:53:24;7.65;;;6.63;;
62903;SDS011;49000;50.698;13.322;2023-05-21T13:55:50;10.77;;;7.45;;
62903;SDS011;49000;50.698;13.322;2023-05-21T13:58:16;7.70;;;6.95;;
62903;SDS011;49000;50.698;13.322;2023-05-21T14:00:41;7.38;;;6.47;;
62903;SDS011;49000;50.698;13.322;2023-05-21T14:03:07;7.90;;;7.10;;
62903;SDS011;49000;50.698;13.322;2023-05-21T14:05:34;9.00;;;7.15;;
62903;SDS011;49000;50.698;13.322;2023-05-21T14:07:59;9.43;;;6.72;;
62903;SDS011;49000;50.698;13.322;2023-05-21T14:10:25;7.80;;;7.10;;
62903;SDS011;49000;50.698;13.322;2023-05-21T14:12:51;9.00;;;7.32;;
62903;SDS011;49000;50.698;13.322;2023-05-21T14:15:16;7.18;;;6.57;;
62903;SDS011;49000;50.698;13.322;2023-05-21T14:17:42;6.63;;;6.03;;
62903;SDS011;49000;50.698;13.322;2023-05-21T14:20:08;7.20;;;6.50;;
62903;SDS011;49000;50.698;13.322;2023-05-21T14:22:33;9.85;;;7.05;;
62903;SDS011;49000;50.698;13.322;2023-05-21T14:24:59;7.43;;;6.72;;
62903;SDS011;49000;50.698;13.322;2023-05-21T14:27:24;6.07;;;5.57;;
62903;SDS011;49000;50.698;13.322;2023-05-21T14:29:50;6.63;;;6.00;;